sensor_id;sensor_type;location;lat;lon;timestamp;P1;durP1;ratioP1;P2;durP2;ratioP2
9200;SDS011;4635;48.686;9.008;2022-08-27T00:00:47;31.63;;;24.53;;
9200;SDS011;4635;48.686;9.008;2022-08-27T00:03:15;45.20;;;26.60;;
9200;SDS011;4635;48.686;9.008;2022-08-27T00:05:44;39.97;;;27.03;;
9200;SDS011;4635;48.686;9.008;2022-08-27T00:08:12;29.10;;;21.67;;
9200;SDS011;4635;48.686;9.008;2022-08-27T00:10:41;30.37;;;22.40;;
9200;SDS011;4635;48.686;9.008;2022-08-27T00:13:08;24.93;;;20.10;;
9200;SDS011;4635;48.686;9.008;2022-08-27T00:15:36;29.60;;;20.37;;
9200;SDS011;4635;48.686;9.008;2022-08-27T00:18:06;33.93;;;24.80;;
9200;SDS011;4635;48.686;9.008;2022-08-27T00:20:37;37.40;;;24.90;;
9200;SDS011;4635;48.686;9.008;2022-08-27T00:23:05;32.27;;;22.70;;
9200;SDS011;4635;48.686;9.008;2022-08-27T00:25:33;34.67;;;24.50;;
9200;SDS011;4635;48.686;9.008;2022-08-27T00:28:00;34.57;;;24.10;;
9200;SDS011;4635;48.686;9.008;2022-08-27T00:30:28;42.10;;;25.47;;
9200;SDS011;4635;48.686;9.008;2022-08-27T00:32:55;39.50;;;27.73;;
9200;SDS011;4635;48.686;9.008;2022-08-27T00:35:22;37.73;;;27.50;;
9200;SDS011;4635;48.686;9.008;2022-08-27T00:37:51;39.97;;;27.90;;
9200;SDS011;4635;48.686;9.008;2022-08-27T00:40:20;42.07;;;29.63;;
9200;SDS011;4635;48.686;9.008;2022-08-27T00:42:48;37.00;;;26.47;;
9200;SDS011;4635;48.686;9.008;2022-08-27T00:45:17;50.90;;;28.83;;
9200;SDS011;4635;48.686;9.008;2022-08-27T00:47:47;40.40;;;29.17;;
9200;SDS011;4635;48.686;9.008;2022-08-27T00:50:19;37.37;;;27.23;;
9200;SDS011;4635;48.686;9.008;2022-08-27T00:52:54;41.20;;;29.10;;
9200;SDS011;4635;48.686;9.008;2022-08-27T00:55:26;40.73;;;28.10;;
9200;SDS011;4635;48.686;9.008;2022-08-27T00:57:58;43.60;;;26.67;;
9200;SDS011;4635;48.686;9.008;2022-08-27T01:00:33;36.07;;;26.60;;
9200;SDS011;4635;48.686;9.008;2022-08-27T01:03:01;41.03;;;26.67;;
9200;SDS011;4635;48.686;9.008;2022-08-27T01:05:29;39.60;;;28.30;;
9200;SDS011;4635;48.686;9.008;2022-08-27T01:08:01;42.33;;;26.40;;
9200;SDS011;4635;48.686;9.008;2022-08-27T01:10:33;37.70;;;27.50;;
9200;SDS011;4635;48.686;9.008;2022-08-27T01:13:01;35.67;;;27.50;;
9200;SDS011;4635;48.686;9.008;2022-08-27T01:15:28;34.93;;;26.67;;
9200;SDS011;4635;48.686;9.008;2022-08-27T01:17:56;40.90;;;27.23;;
9200;SDS011;4635;48.686;9.008;2022-08-27T01:20:26;34.00;;;25.07;;
9200;SDS011;4635;48.686;9.008;2022-08-27T01:23:00;37.20;;;27.00;;
9200;SDS011;4635;48.686;9.008;2022-08-27T01:25:36;36.00;;;24.47;;
9200;SDS011;4635;48.686;9.008;2022-08-27T01:28:06;32.93;;;24.33;;
9200;SDS011;4635;48.686;9.008;2022-08-27T01:30:34;41.50;;;24.60;;
9200;SDS011;4635;48.686;9.008;2022-08-27T01:33:06;32.37;;;22.77;;
9200;SDS011;4635;48.686;9.008;2022-08-27T01:35:35;30.43;;;23.83;;
9200;SDS011;4635;48.686;9.008;2022-08-27T01:38:03;42.70;;;25.00;;
9200;SDS011;4635;48.686;9.008;2022-08-27T01:40:30;37.80;;;24.33;;
9200;SDS011;4635;48.686;9.008;2022-08-27T01:43:01;36.70;;;25.70;;
9200;SDS011;4635;48.686;9.008;2022-08-27T01:45:28;37.87;;;25.90;;
9200;SDS011;4635;48.686;9.008;2022-08-27T01:47:57;35.07;;;26.07;;
9200;SDS011;4635;48.686;9.008;2022-08-27T01:50:29;57.27;;;31.17;;
9200;SDS011;4635;48.686;9.008;2022-08-27T01:53:01;44.93;;;27.30;;
9200;SDS011;4635;48.686;9.008;2022-08-27T01:55:38;44.37;;;32.80;;
9200;SDS011;4635;48.686;9.008;2022-08-27T01:58:10;46.47;;;30.50;;
9200;SDS011;4635;48.686;9.008;2022-08-27T02:00:38;55.10;;;32.43;;
9200;SDS011;4635;48.686;9.008;2022-08-27T02:03:08;46.83;;;34.40;;
9200;SDS011;4635;48.686;9.008;2022-08-27T02:05:37;57.80;;;36.03;;
9200;SDS011;4635;48.686;9.008;2022-08-27T02:08:05;59.40;;;36.63;;
9200;SDS011;4635;48.686;9.008;2022-08-27T02:10:33;59.00;;;38.87;;
9200;SDS011;4635;48.686;9.008;2022-08-27T02:13:02;65.47;;;40.83;;
9200;SDS011;4635;48.686;9.008;2022-08-27T02:15:33;58.47;;;38.50;;
9200;SDS011;4635;48.686;9.008;2022-08-27T02:18:01;67.17;;;42.10;;
9200;SDS011;4635;48.686;9.008;2022-08-27T02:20:29;77.97;;;45.90;;
9200;SDS011;4635;48.686;9.008;2022-08-27T02:22:56;69.53;;;42.97;;
9200;SDS011;4635;48.686;9.008;2022-08-27T02:25:24;66.83;;;42.37;;
9200;SDS011;4635;48.686;9.008;2022-08-27T02:27:53;67.40;;;42.80;;
9200;SDS011;4635;48.686;9.008;2022-08-27T02:30:21;68.47;;;41.30;;
9200;SDS011;4635;48.686;9.008;2022-08-27T02:32:50;61.37;;;40.00;;
9200;SDS011;4635;48.686;9.008;2022-08-27T02:35:18;79.97;;;42.67;;
9200;SDS011;4635;48.686;9.008;2022-08-27T02:37:47;65.03;;;39.77;;
9200;SDS011;4635;48.686;9.008;2022-08-27T02:40:16;67.03;;;38.70;;
9200;SDS011;4635;48.686;9.008;2022-08-27T02:42:44;67.47;;;33.30;;
9200;SDS011;4635;48.686;9.008;2022-08-27T02:45:12;47.73;;;29.60;;
9200;SDS011;4635;48.686;9.008;2022-08-27T02:47:44;56.40;;;32.17;;
9200;SDS011;4635;48.686;9.008;2022-08-27T02:50:13;60.87;;;35.97;;
9200;SDS011;4635;48.686;9.008;2022-08-27T02:52:41;65.63;;;38.70;;
9200;SDS011;4635;48.686;9.008;2022-08-27T02:55:10;58.90;;;38.57;;
9200;SDS011;4635;48.686;9.008;2022-08-27T02:57:37;66.73;;;35.37;;
9200;SDS011;4635;48.686;9.008;2022-08-27T03:00:05;58.10;;;37.93;;
9200;SDS011;4635;48.686;9.008;2022-08-27T03:02:36;54.40;;;34.63;;
9200;SDS011;4635;48.686;9.008;2022-08-27T03:05:04;59.67;;;36.43;;
9200;SDS011;4635;48.686;9.008;2022-08-27T03:07:33;68.30;;;37.87;;
9200;SDS011;4635;48.686;9.008;2022-08-27T03:10:01;61.27;;;35.13;;
9200;SDS011;4635;48.686;9.008;2022-08-27T03:12:29;75.00;;;39.77;;
9200;SDS011;4635;48.686;9.008;2022-08-27T03:14:58;68.77;;;41.80;;
9200;SDS011;4635;48.686;9.008;2022-08-27T03:17:25;65.03;;;39.67;;
9200;SDS011;4635;48.686;9.008;2022-08-27T03:20:09;60.83;;;38.37;;
9200;SDS011;4635;48.686;9.008;2022-08-27T03:22:38;51.83;;;33.90;;
9200;SDS011;4635;48.686;9.008;2022-08-27T03:25:06;60.40;;;36.17;;
9200;SDS011;4635;48.686;9.008;2022-08-27T03:27:35;53.77;;;33.60;;
9200;SDS011;4635;48.686;9.008;2022-08-27T03:30:03;53.67;;;34.50;;
9200;SDS011;4635;48.686;9.008;2022-08-27T03:32:31;52.10;;;35.00;;
9200;SDS011;4635;48.686;9.008;2022-08-27T03:34:58;60.50;;;36.67;;
9200;SDS011;4635;48.686;9.008;2022-08-27T03:37:25;60.07;;;36.17;;
9200;SDS011;4635;48.686;9.008;2022-08-27T03:39:54;66.47;;;40.70;;
9200;SDS011;4635;48.686;9.008;2022-08-27T03:42:21;59.37;;;40.90;;
9200;SDS011;4635;48.686;9.008;2022-08-27T03:44:48;67.87;;;42.17;;
9200;SDS011;4635;48.686;9.008;2022-08-27T03:47:18;83.50;;;48.27;;
9200;SDS011;4635;48.686;9.008;2022-08-27T03:49:49;77.97;;;49.77;;
9200;SDS011;4635;48.686;9.008;2022-08-27T03:52:16;78.70;;;49.87;;
9200;SDS011;4635;48.686;9.008;2022-08-27T03:54:44;92.33;;;58.07;;
9200;SDS011;4635;48.686;9.008;2022-08-27T03:57:13;98.50;;;61.10;;
9200;SDS011;4635;48.686;9.008;2022-08-27T03:59:43;106.50;;;64.10;;
9200;SDS011;4635;48.686;9.008;2022-08-27T04:02:10;114.23;;;65.50;;
9200;SDS011;4635;48.686;9.008;2022-08-27T04:04:37;113.60;;;70.43;;
9200;SDS011;4635;48.686;9.008;2022-08-27T04:07:04;125.53;;;74.10;;
9200;SDS011;4635;48.686;9.008;2022-08-27T04:09:31;113.43;;;73.47;;
9200;SDS011;4635;48.686;9.008;2022-08-27T04:11:58;119.33;;;75.40;;
9200;SDS011;4635;48.686;9.008;2022-08-27T04:14:27;117.00;;;71.47;;
9200;SDS011;4635;48.686;9.008;2022-08-27T04:16:54;131.33;;;76.77;;
9200;SDS011;4635;48.686;9.008;2022-08-27T04:19:21;129.80;;;80.87;;
9200;SDS011;4635;48.686;9.008;2022-08-27T04:21:48;145.17;;;83.87;;
9200;SDS011;4635;48.686;9.008;2022-08-27T04:24:15;133.40;;;81.63;;
9200;SDS011;4635;48.686;9.008;2022-08-27T04:26:42;142.90;;;83.60;;
9200;SDS011;4635;48.686;9.008;2022-08-27T04:29:11;132.53;;;81.37;;
9200;SDS011;4635;48.686;9.008;2022-08-27T04:31:40;137.80;;;78.60;;
9200;SDS011;4635;48.686;9.008;2022-08-27T04:34:07;159.83;;;84.00;;
9200;SDS011;4635;48.686;9.008;2022-08-27T04:36:34;129.00;;;79.90;;
9200;SDS011;4635;48.686;9.008;2022-08-27T04:39:02;140.60;;;80.57;;
9200;SDS011;4635;48.686;9.008;2022-08-27T04:41:29;125.63;;;75.10;;
9200;SDS011;4635;48.686;9.008;2022-08-27T04:43:58;136.13;;;76.97;;
9200;SDS011;4635;48.686;9.008;2022-08-27T04:46:30;127.73;;;77.20;;
9200;SDS011;4635;48.686;9.008;2022-08-27T04:49:02;125.47;;;71.57;;
9200;SDS011;4635;48.686;9.008;2022-08-27T04:51:34;107.73;;;67.60;;
9200;SDS011;4635;48.686;9.008;2022-08-27T04:54:02;104.10;;;68.33;;
9200;SDS011;4635;48.686;9.008;2022-08-27T04:56:30;128.20;;;69.63;;
9200;SDS011;4635;48.686;9.008;2022-08-27T04:58:59;109.43;;;69.20;;
9200;SDS011;4635;48.686;9.008;2022-08-27T05:01:28;111.27;;;66.23;;
9200;SDS011;4635;48.686;9.008;2022-08-27T05:03:56;113.80;;;64.03;;
9200;SDS011;4635;48.686;9.008;2022-08-27T05:06:25;112.00;;;63.97;;
9200;SDS011;4635;48.686;9.008;2022-08-27T05:08:53;102.80;;;65.10;;
9200;SDS011;4635;48.686;9.008;2022-08-27T05:11:21;122.47;;;67.03;;
9200;SDS011;4635;48.686;9.008;2022-08-27T05:13:49;116.07;;;69.13;;
9200;SDS011;4635;48.686;9.008;2022-08-27T05:16:18;118.27;;;63.67;;
9200;SDS011;4635;48.686;9.008;2022-08-27T05:18:46;114.70;;;67.33;;
9200;SDS011;4635;48.686;9.008;2022-08-27T05:21:15;117.40;;;64.70;;
9200;SDS011;4635;48.686;9.008;2022-08-27T05:23:45;127.50;;;72.07;;
9200;SDS011;4635;48.686;9.008;2022-08-27T05:26:13;131.90;;;69.77;;
9200;SDS011;4635;48.686;9.008;2022-08-27T05:28:40;115.93;;;66.47;;
9200;SDS011;4635;48.686;9.008;2022-08-27T05:31:08;108.97;;;66.53;;
9200;SDS011;4635;48.686;9.008;2022-08-27T05:33:37;122.70;;;69.87;;
9200;SDS011;4635;48.686;9.008;2022-08-27T05:36:13;112.27;;;64.40;;
9200;SDS011;4635;48.686;9.008;2022-08-27T05:38:42;120.70;;;68.57;;
9200;SDS011;4635;48.686;9.008;2022-08-27T05:41:11;108.60;;;62.07;;
9200;SDS011;4635;48.686;9.008;2022-08-27T05:43:40;112.77;;;63.90;;
9200;SDS011;4635;48.686;9.008;2022-08-27T05:46:08;115.80;;;63.43;;
9200;SDS011;4635;48.686;9.008;2022-08-27T05:48:38;126.13;;;66.50;;
9200;SDS011;4635;48.686;9.008;2022-08-27T05:51:15;112.70;;;61.40;;
9200;SDS011;4635;48.686;9.008;2022-08-27T05:53:44;109.03;;;61.07;;
9200;SDS011;4635;48.686;9.008;2022-08-27T05:56:13;99.03;;;59.43;;
9200;SDS011;4635;48.686;9.008;2022-08-27T05:58:42;109.83;;;62.43;;
9200;SDS011;4635;48.686;9.008;2022-08-27T06:01:26;111.07;;;64.50;;
9200;SDS011;4635;48.686;9.008;2022-08-27T06:03:55;118.90;;;67.10;;
9200;SDS011;4635;48.686;9.008;2022-08-27T06:06:22;107.83;;;62.30;;
9200;SDS011;4635;48.686;9.008;2022-08-27T06:08:53;111.97;;;61.60;;
9200;SDS011;4635;48.686;9.008;2022-08-27T06:11:22;109.97;;;63.23;;
9200;SDS011;4635;48.686;9.008;2022-08-27T06:13:49;104.33;;;61.40;;
9200;SDS011;4635;48.686;9.008;2022-08-27T06:16:17;102.00;;;59.23;;
9200;SDS011;4635;48.686;9.008;2022-08-27T06:18:45;113.23;;;61.60;;
9200;SDS011;4635;48.686;9.008;2022-08-27T06:21:14;104.17;;;61.47;;
9200;SDS011;4635;48.686;9.008;2022-08-27T06:23:42;106.20;;;62.23;;
9200;SDS011;4635;48.686;9.008;2022-08-27T06:26:10;96.80;;;57.87;;
9200;SDS011;4635;48.686;9.008;2022-08-27T06:28:39;100.97;;;59.07;;
9200;SDS011;4635;48.686;9.008;2022-08-27T06:31:07;96.77;;;56.70;;
9200;SDS011;4635;48.686;9.008;2022-08-27T06:33:36;83.73;;;53.47;;
9200;SDS011;4635;48.686;9.008;2022-08-27T06:36:05;88.90;;;55.00;;
9200;SDS011;4635;48.686;9.008;2022-08-27T06:38:34;78.60;;;49.50;;
9200;SDS011;4635;48.686;9.008;2022-08-27T06:41:02;81.07;;;47.97;;
9200;SDS011;4635;48.686;9.008;2022-08-27T06:43:30;67.07;;;45.63;;
9200;SDS011;4635;48.686;9.008;2022-08-27T06:46:02;77.23;;;49.00;;
9200;SDS011;4635;48.686;9.008;2022-08-27T06:48:30;66.63;;;45.07;;
9200;SDS011;4635;48.686;9.008;2022-08-27T06:50:57;64.67;;;44.53;;
9200;SDS011;4635;48.686;9.008;2022-08-27T06:53:24;66.43;;;43.50;;
9200;SDS011;4635;48.686;9.008;2022-08-27T06:55:53;63.30;;;44.57;;
9200;SDS011;4635;48.686;9.008;2022-08-27T06:58:20;58.40;;;42.23;;
9200;SDS011;4635;48.686;9.008;2022-08-27T07:00:49;54.87;;;40.30;;
9200;SDS011;4635;48.686;9.008;2022-08-27T07:03:17;67.27;;;43.63;;
9200;SDS011;4635;48.686;9.008;2022-08-27T07:05:44;69.90;;;42.47;;
9200;SDS011;4635;48.686;9.008;2022-08-27T07:08:11;54.37;;;38.40;;
9200;SDS011;4635;48.686;9.008;2022-08-27T07:10:39;52.63;;;40.67;;
9200;SDS011;4635;48.686;9.008;2022-08-27T07:13:08;113.77;;;67.00;;
9200;SDS011;4635;48.686;9.008;2022-08-27T07:15:36;63.30;;;42.33;;
9200;SDS011;4635;48.686;9.008;2022-08-27T07:18:04;59.63;;;40.27;;
9200;SDS011;4635;48.686;9.008;2022-08-27T07:20:35;50.40;;;38.40;;
9200;SDS011;4635;48.686;9.008;2022-08-27T07:23:06;54.73;;;35.50;;
9200;SDS011;4635;48.686;9.008;2022-08-27T07:25:33;52.60;;;38.37;;
9200;SDS011;4635;48.686;9.008;2022-08-27T07:28:00;53.83;;;37.40;;
9200;SDS011;4635;48.686;9.008;2022-08-27T07:30:28;50.87;;;35.47;;
9200;SDS011;4635;48.686;9.008;2022-08-27T07:32:55;51.37;;;34.83;;
9200;SDS011;4635;48.686;9.008;2022-08-27T07:35:22;54.10;;;37.03;;
9200;SDS011;4635;48.686;9.008;2022-08-27T07:37:53;58.13;;;35.33;;
9200;SDS011;4635;48.686;9.008;2022-08-27T07:40:20;54.10;;;36.80;;
9200;SDS011;4635;48.686;9.008;2022-08-27T07:42:47;52.33;;;37.87;;
9200;SDS011;4635;48.686;9.008;2022-08-27T07:45:41;50.90;;;35.47;;
9200;SDS011;4635;48.686;9.008;2022-08-27T07:48:10;47.50;;;35.87;;
9200;SDS011;4635;48.686;9.008;2022-08-27T07:50:37;56.07;;;36.50;;
9200;SDS011;4635;48.686;9.008;2022-08-27T07:53:06;50.80;;;31.90;;
9200;SDS011;4635;48.686;9.008;2022-08-27T07:55:34;47.40;;;31.37;;
9200;SDS011;4635;48.686;9.008;2022-08-27T07:58:02;44.70;;;33.07;;
9200;SDS011;4635;48.686;9.008;2022-08-27T08:00:39;56.60;;;37.10;;
9200;SDS011;4635;48.686;9.008;2022-08-27T08:03:07;46.50;;;31.53;;
9200;SDS011;4635;48.686;9.008;2022-08-27T08:05:40;53.63;;;34.07;;
9200;SDS011;4635;48.686;9.008;2022-08-27T08:08:12;53.50;;;32.43;;
9200;SDS011;4635;48.686;9.008;2022-08-27T08:10:40;63.73;;;34.80;;
9200;SDS011;4635;48.686;9.008;2022-08-27T08:13:09;60.00;;;38.40;;
9200;SDS011;4635;48.686;9.008;2022-08-27T08:15:36;64.13;;;36.57;;
9200;SDS011;4635;48.686;9.008;2022-08-27T08:18:04;65.10;;;34.07;;
9200;SDS011;4635;48.686;9.008;2022-08-27T08:20:31;60.97;;;36.47;;
9200;SDS011;4635;48.686;9.008;2022-08-27T08:22:58;63.60;;;37.20;;
9200;SDS011;4635;48.686;9.008;2022-08-27T08:25:27;47.03;;;33.77;;
9200;SDS011;4635;48.686;9.008;2022-08-27T08:27:54;46.03;;;33.33;;
9200;SDS011;4635;48.686;9.008;2022-08-27T08:30:21;60.80;;;37.10;;
9200;SDS011;4635;48.686;9.008;2022-08-27T08:32:49;60.23;;;38.70;;
9200;SDS011;4635;48.686;9.008;2022-08-27T08:35:16;56.97;;;37.13;;
9200;SDS011;4635;48.686;9.008;2022-08-27T08:37:44;51.60;;;34.70;;
9200;SDS011;4635;48.686;9.008;2022-08-27T08:40:13;55.27;;;34.23;;
9200;SDS011;4635;48.686;9.008;2022-08-27T08:42:52;60.87;;;36.20;;
9200;SDS011;4635;48.686;9.008;2022-08-27T08:45:21;49.97;;;33.90;;
9200;SDS011;4635;48.686;9.008;2022-08-27T08:47:54;58.83;;;34.33;;
9200;SDS011;4635;48.686;9.008;2022-08-27T08:50:25;61.50;;;34.73;;
9200;SDS011;4635;48.686;9.008;2022-08-27T08:53:04;53.03;;;33.23;;
9200;SDS011;4635;48.686;9.008;2022-08-27T08:55:39;57.73;;;35.40;;
9200;SDS011;4635;48.686;9.008;2022-08-27T08:58:20;56.70;;;35.67;;
9200;SDS011;4635;48.686;9.008;2022-08-27T09:00:58;63.33;;;36.57;;
9200;SDS011;4635;48.686;9.008;2022-08-27T09:03:27;63.40;;;37.87;;
9200;SDS011;4635;48.686;9.008;2022-08-27T09:05:57;52.10;;;36.67;;
9200;SDS011;4635;48.686;9.008;2022-08-27T09:08:27;53.43;;;35.40;;
9200;SDS011;4635;48.686;9.008;2022-08-27T09:11:04;55.13;;;35.53;;
9200;SDS011;4635;48.686;9.008;2022-08-27T09:13:39;53.53;;;35.40;;
9200;SDS011;4635;48.686;9.008;2022-08-27T09:16:08;48.10;;;32.33;;
9200;SDS011;4635;48.686;9.008;2022-08-27T09:18:36;52.13;;;34.17;;
9200;SDS011;4635;48.686;9.008;2022-08-27T09:21:09;56.03;;;34.53;;
9200;SDS011;4635;48.686;9.008;2022-08-27T09:23:46;55.40;;;35.27;;
9200;SDS011;4635;48.686;9.008;2022-08-27T09:26:23;48.47;;;34.00;;
9200;SDS011;4635;48.686;9.008;2022-08-27T09:28:58;57.97;;;37.87;;
9200;SDS011;4635;48.686;9.008;2022-08-27T09:31:45;51.10;;;36.13;;
9200;SDS011;4635;48.686;9.008;2022-08-27T09:34:14;57.93;;;33.07;;
9200;SDS011;4635;48.686;9.008;2022-08-27T09:36:52;62.30;;;36.13;;
9200;SDS011;4635;48.686;9.008;2022-08-27T09:39:24;55.37;;;35.80;;
9200;SDS011;4635;48.686;9.008;2022-08-27T09:42:01;56.60;;;35.77;;
9200;SDS011;4635;48.686;9.008;2022-08-27T09:44:31;55.20;;;36.37;;
9200;SDS011;4635;48.686;9.008;2022-08-27T09:46:59;48.93;;;34.80;;
9200;SDS011;4635;48.686;9.008;2022-08-27T09:49:29;49.37;;;32.90;;
9200;SDS011;4635;48.686;9.008;2022-08-27T09:52:00;44.90;;;32.53;;
9200;SDS011;4635;48.686;9.008;2022-08-27T09:54:36;47.33;;;32.27;;
9200;SDS011;4635;48.686;9.008;2022-08-27T09:57:09;45.50;;;28.73;;
9200;SDS011;4635;48.686;9.008;2022-08-27T09:59:40;40.70;;;30.33;;
9200;SDS011;4635;48.686;9.008;2022-08-27T10:02:17;50.20;;;29.93;;
9200;SDS011;4635;48.686;9.008;2022-08-27T10:04:49;49.00;;;30.90;;
9200;SDS011;4635;48.686;9.008;2022-08-27T10:07:21;34.83;;;27.20;;
9200;SDS011;4635;48.686;9.008;2022-08-27T10:09:56;43.10;;;27.87;;
9200;SDS011;4635;48.686;9.008;2022-08-27T10:12:32;45.03;;;30.20;;
9200;SDS011;4635;48.686;9.008;2022-08-27T10:15:05;38.30;;;26.30;;
9200;SDS011;4635;48.686;9.008;2022-08-27T10:17:43;36.10;;;24.10;;
9200;SDS011;4635;48.686;9.008;2022-08-27T10:20:21;36.40;;;24.10;;
9200;SDS011;4635;48.686;9.008;2022-08-27T10:23:03;31.83;;;24.77;;
9200;SDS011;4635;48.686;9.008;2022-08-27T10:25:42;35.50;;;27.20;;
9200;SDS011;4635;48.686;9.008;2022-08-27T10:28:22;48.93;;;30.37;;
9200;SDS011;4635;48.686;9.008;2022-08-27T10:31:11;36.90;;;29.57;;
9200;SDS011;4635;48.686;9.008;2022-08-27T10:33:52;46.00;;;30.33;;
9200;SDS011;4635;48.686;9.008;2022-08-27T10:36:32;32.37;;;26.60;;
9200;SDS011;4635;48.686;9.008;2022-08-27T10:39:17;36.90;;;26.73;;
9200;SDS011;4635;48.686;9.008;2022-08-27T10:41:53;30.37;;;22.90;;
9200;SDS011;4635;48.686;9.008;2022-08-27T10:44:34;32.60;;;24.67;;
9200;SDS011;4635;48.686;9.008;2022-08-27T10:47:14;28.13;;;23.00;;
9200;SDS011;4635;48.686;9.008;2022-08-27T10:50:07;27.00;;;21.50;;
9200;SDS011;4635;48.686;9.008;2022-08-27T10:52:42;29.70;;;22.47;;
9200;SDS011;4635;48.686;9.008;2022-08-27T10:55:13;33.97;;;22.23;;
9200;SDS011;4635;48.686;9.008;2022-08-27T10:57:56;31.10;;;23.10;;
9200;SDS011;4635;48.686;9.008;2022-08-27T11:00:47;28.87;;;20.63;;
9200;SDS011;4635;48.686;9.008;2022-08-27T11:03:26;25.73;;;22.10;;
9200;SDS011;4635;48.686;9.008;2022-08-27T11:06:01;30.13;;;22.03;;
9200;SDS011;4635;48.686;9.008;2022-08-27T11:08:42;33.03;;;23.37;;
9200;SDS011;4635;48.686;9.008;2022-08-27T11:11:14;25.00;;;22.30;;
9200;SDS011;4635;48.686;9.008;2022-08-27T11:13:51;28.37;;;20.93;;
9200;SDS011;4635;48.686;9.008;2022-08-27T11:16:24;29.73;;;24.27;;
9200;SDS011;4635;48.686;9.008;2022-08-27T11:18:57;28.00;;;21.20;;
9200;SDS011;4635;48.686;9.008;2022-08-27T11:21:31;35.80;;;22.33;;
9200;SDS011;4635;48.686;9.008;2022-08-27T11:24:07;36.90;;;22.00;;
9200;SDS011;4635;48.686;9.008;2022-08-27T11:26:45;28.03;;;23.23;;
9200;SDS011;4635;48.686;9.008;2022-08-27T11:29:18;30.67;;;24.33;;
9200;SDS011;4635;48.686;9.008;2022-08-27T11:31:52;35.10;;;24.73;;
9200;SDS011;4635;48.686;9.008;2022-08-27T11:34:26;31.20;;;21.47;;
9200;SDS011;4635;48.686;9.008;2022-08-27T11:37:12;26.50;;;21.80;;
9200;SDS011;4635;48.686;9.008;2022-08-27T11:40:03;28.07;;;22.03;;
9200;SDS011;4635;48.686;9.008;2022-08-27T11:42:43;32.10;;;21.97;;
9200;SDS011;4635;48.686;9.008;2022-08-27T11:45:15;36.20;;;25.30;;
9200;SDS011;4635;48.686;9.008;2022-08-27T11:47:50;33.50;;;24.00;;
9200;SDS011;4635;48.686;9.008;2022-08-27T11:50:21;25.53;;;20.37;;
9200;SDS011;4635;48.686;9.008;2022-08-27T11:52:54;37.93;;;23.70;;
9200;SDS011;4635;48.686;9.008;2022-08-27T11:55:25;31.47;;;22.57;;
9200;SDS011;4635;48.686;9.008;2022-08-27T11:58:04;37.30;;;23.30;;
9200;SDS011;4635;48.686;9.008;2022-08-27T12:00:34;31.23;;;24.47;;
9200;SDS011;4635;48.686;9.008;2022-08-27T12:03:04;34.70;;;23.03;;
9200;SDS011;4635;48.686;9.008;2022-08-27T12:05:37;28.70;;;22.63;;
9200;SDS011;4635;48.686;9.008;2022-08-27T12:08:14;34.30;;;20.77;;
9200;SDS011;4635;48.686;9.008;2022-08-27T12:10:49;27.57;;;20.93;;
9200;SDS011;4635;48.686;9.008;2022-08-27T12:13:43;27.40;;;19.30;;
9200;SDS011;4635;48.686;9.008;2022-08-27T12:16:23;26.97;;;19.03;;
9200;SDS011;4635;48.686;9.008;2022-08-27T12:19:00;25.60;;;20.47;;
9200;SDS011;4635;48.686;9.008;2022-08-27T12:21:39;24.43;;;19.20;;
9200;SDS011;4635;48.686;9.008;2022-08-27T12:24:24;38.13;;;21.07;;
9200;SDS011;4635;48.686;9.008;2022-08-27T12:27:14;24.33;;;21.33;;
9200;SDS011;4635;48.686;9.008;2022-08-27T12:29:52;27.93;;;20.23;;
9200;SDS011;4635;48.686;9.008;2022-08-27T12:32:25;28.60;;;19.80;;
9200;SDS011;4635;48.686;9.008;2022-08-27T12:35:03;25.93;;;20.43;;
9200;SDS011;4635;48.686;9.008;2022-08-27T12:37:38;30.00;;;20.50;;
9200;SDS011;4635;48.686;9.008;2022-08-27T12:40:13;29.60;;;23.33;;
9200;SDS011;4635;48.686;9.008;2022-08-27T12:42:47;31.87;;;20.40;;
9200;SDS011;4635;48.686;9.008;2022-08-27T12:45:22;38.23;;;24.00;;
9200;SDS011;4635;48.686;9.008;2022-08-27T12:47:51;32.40;;;21.83;;
9200;SDS011;4635;48.686;9.008;2022-08-27T12:50:21;28.67;;;23.80;;
9200;SDS011;4635;48.686;9.008;2022-08-27T12:52:57;35.00;;;22.13;;
9200;SDS011;4635;48.686;9.008;2022-08-27T12:55:53;24.70;;;20.60;;
9200;SDS011;4635;48.686;9.008;2022-08-27T12:58:37;29.03;;;20.67;;
9200;SDS011;4635;48.686;9.008;2022-08-27T13:01:18;33.10;;;20.80;;
9200;SDS011;4635;48.686;9.008;2022-08-27T13:04:07;31.70;;;21.23;;
9200;SDS011;4635;48.686;9.008;2022-08-27T13:06:45;29.17;;;19.87;;
9200;SDS011;4635;48.686;9.008;2022-08-27T13:09:14;32.13;;;23.40;;
9200;SDS011;4635;48.686;9.008;2022-08-27T13:11:45;29.03;;;22.53;;
9200;SDS011;4635;48.686;9.008;2022-08-27T13:14:14;32.43;;;20.83;;
9200;SDS011;4635;48.686;9.008;2022-08-27T13:16:47;34.57;;;20.50;;
9200;SDS011;4635;48.686;9.008;2022-08-27T13:19:18;30.90;;;20.00;;
9200;SDS011;4635;48.686;9.008;2022-08-27T13:21:48;33.43;;;24.00;;
9200;SDS011;4635;48.686;9.008;2022-08-27T13:24:20;29.00;;;21.10;;
9200;SDS011;4635;48.686;9.008;2022-08-27T13:26:53;35.13;;;23.97;;
9200;SDS011;4635;48.686;9.008;2022-08-27T13:29:24;31.83;;;23.80;;
9200;SDS011;4635;48.686;9.008;2022-08-27T13:31:52;47.83;;;26.70;;
9200;SDS011;4635;48.686;9.008;2022-08-27T13:34:21;34.30;;;24.90;;
9200;SDS011;4635;48.686;9.008;2022-08-27T13:36:52;27.87;;;21.97;;
9200;SDS011;4635;48.686;9.008;2022-08-27T13:39:25;32.27;;;25.17;;
9200;SDS011;4635;48.686;9.008;2022-08-27T13:41:53;29.60;;;23.07;;
9200;SDS011;4635;48.686;9.008;2022-08-27T13:44:23;42.43;;;26.07;;
9200;SDS011;4635;48.686;9.008;2022-08-27T13:46:57;31.93;;;23.90;;
9200;SDS011;4635;48.686;9.008;2022-08-27T13:49:28;40.60;;;25.23;;
9200;SDS011;4635;48.686;9.008;2022-08-27T13:51:58;37.67;;;22.37;;
9200;SDS011;4635;48.686;9.008;2022-08-27T13:54:30;29.80;;;23.37;;
9200;SDS011;4635;48.686;9.008;2022-08-27T13:56:58;28.70;;;22.97;;
9200;SDS011;4635;48.686;9.008;2022-08-27T13:59:32;36.63;;;26.00;;
9200;SDS011;4635;48.686;9.008;2022-08-27T14:02:17;26.97;;;22.20;;
9200;SDS011;4635;48.686;9.008;2022-08-27T14:04:48;50.63;;;24.43;;
9200;SDS011;4635;48.686;9.008;2022-08-27T14:07:20;41.90;;;28.10;;
9200;SDS011;4635;48.686;9.008;2022-08-27T14:09:53;30.70;;;24.37;;
9200;SDS011;4635;48.686;9.008;2022-08-27T14:12:26;34.30;;;23.30;;
9200;SDS011;4635;48.686;9.008;2022-08-27T14:14:56;28.63;;;23.00;;
9200;SDS011;4635;48.686;9.008;2022-08-27T14:17:25;22.30;;;19.53;;
9200;SDS011;4635;48.686;9.008;2022-08-27T14:20:06;29.00;;;21.57;;
9200;SDS011;4635;48.686;9.008;2022-08-27T14:22:34;31.10;;;22.17;;
9200;SDS011;4635;48.686;9.008;2022-08-27T14:25:06;41.30;;;22.57;;
9200;SDS011;4635;48.686;9.008;2022-08-27T14:27:37;27.83;;;22.13;;
9200;SDS011;4635;48.686;9.008;2022-08-27T14:30:06;34.00;;;23.50;;
9200;SDS011;4635;48.686;9.008;2022-08-27T14:32:35;26.20;;;20.40;;
9200;SDS011;4635;48.686;9.008;2022-08-27T14:35:04;29.17;;;20.27;;
9200;SDS011;4635;48.686;9.008;2022-08-27T14:37:31;32.07;;;20.33;;
9200;SDS011;4635;48.686;9.008;2022-08-27T14:39:58;30.70;;;19.60;;
9200;SDS011;4635;48.686;9.008;2022-08-27T14:42:27;34.37;;;22.47;;
9200;SDS011;4635;48.686;9.008;2022-08-27T14:44:54;32.00;;;21.37;;
9200;SDS011;4635;48.686;9.008;2022-08-27T14:47:22;31.00;;;21.17;;
9200;SDS011;4635;48.686;9.008;2022-08-27T14:49:50;31.20;;;20.67;;
9200;SDS011;4635;48.686;9.008;2022-08-27T14:52:18;33.20;;;22.50;;
9200;SDS011;4635;48.686;9.008;2022-08-27T14:54:45;41.27;;;22.10;;
9200;SDS011;4635;48.686;9.008;2022-08-27T14:57:12;30.20;;;21.70;;
9200;SDS011;4635;48.686;9.008;2022-08-27T14:59:41;33.53;;;22.90;;
9200;SDS011;4635;48.686;9.008;2022-08-27T15:02:09;36.17;;;22.20;;
9200;SDS011;4635;48.686;9.008;2022-08-27T15:04:39;33.80;;;23.40;;
9200;SDS011;4635;48.686;9.008;2022-08-27T15:07:06;30.43;;;22.53;;
9200;SDS011;4635;48.686;9.008;2022-08-27T15:09:33;34.30;;;23.97;;